createdAt,value
2018-12-02T00:01:12.156Z,7.20
2018-12-02T00:04:16.275Z,7.20
2018-12-02T00:07:20.401Z,7.30
2018-12-02T00:10:25.112Z,7.20
2018-12-02T00:13:29.158Z,7.10
2018-12-02T00:16:33.203Z,7.10
2018-12-02T00:19:37.260Z,7.20
2018-12-02T00:22:42.005Z,7.20
2018-12-02T00:25:46.055Z,7.10
2018-12-02T00:28:50.196Z,7.20
2018-12-02T00:31:54.252Z,7.10
2018-12-02T00:34:58.335Z,7.10
2018-12-02T00:38:03.696Z,7.10
2018-12-02T00:41:07.813Z,7.20
2018-12-02T00:44:11.906Z,7.20
2018-12-02T00:47:15.957Z,7.10
2018-12-02T00:50:20.084Z,7.10
2018-12-02T00:53:24.172Z,7.10
2018-12-02T00:56:31.298Z,7.10
2018-12-02T00:59:41.941Z,7.10
2018-12-02T01:02:47.220Z,7.10
2018-12-02T01:05:51.295Z,7.20
2018-12-02T01:08:55.579Z,7.30
2018-12-02T01:11:59.656Z,7.30
2018-12-02T01:15:04.228Z,7.20
2018-12-02T01:18:08.894Z,7.30
2018-12-02T01:21:12.869Z,7.40
2018-12-02T01:24:16.929Z,7.30
2018-12-02T01:27:20.990Z,7.30
2018-12-02T01:30:25.640Z,7.30
2018-12-02T01:33:29.942Z,7.30
2018-12-02T01:36:33.959Z,7.20
2018-12-02T01:39:38.006Z,7.30
2018-12-02T01:42:42.105Z,7.40
2018-12-02T01:45:46.223Z,7.40
2018-12-02T01:48:50.265Z,7.30
2018-12-02T01:51:54.336Z,7.30
2018-12-02T01:54:58.430Z,7.50
2018-12-02T01:58:02.462Z,7.40
2018-12-02T02:01:06.548Z,7.40
2018-12-02T02:04:10.849Z,7.40
2018-12-02T02:07:14.965Z,7.50
2018-12-02T02:10:25.227Z,7.40
2018-12-02T02:13:29.261Z,7.30
2018-12-02T02:16:33.721Z,7.10
2018-12-02T02:19:37.763Z,7.10
2018-12-02T02:22:42.619Z,7.10
2018-12-02T02:25:46.719Z,7.10
2018-12-02T02:28:50.772Z,7.10
2018-12-02T02:31:54.954Z,7.00
2018-12-02T02:34:58.993Z,7.10
2018-12-02T02:38:03.111Z,7.10
2018-12-02T02:41:07.188Z,7.10
2018-12-02T02:44:11.240Z,7.00
2018-12-02T02:47:15.337Z,7.00
2018-12-02T02:50:23.519Z,7.10
2018-12-02T02:53:27.692Z,7.00
2018-12-02T02:56:31.777Z,7.00
2018-12-02T02:59:36.203Z,7.00
2018-12-02T03:02:40.612Z,7.00
2018-12-02T03:05:44.673Z,6.90
2018-12-02T03:08:48.697Z,7.00
2018-12-02T03:11:52.847Z,6.90
2018-12-02T03:14:56.888Z,6.90
2018-12-02T03:18:01.149Z,7.00
2018-12-02T03:21:05.246Z,6.90
2018-12-02T03:24:09.293Z,7.00
2018-12-02T03:27:14.087Z,6.90
2018-12-02T03:30:21.043Z,7.00
2018-12-02T03:33:25.597Z,7.00
2018-12-02T03:36:29.690Z,6.90
2018-12-02T03:39:33.813Z,6.90
2018-12-02T03:42:37.910Z,7.00
2018-12-02T03:45:42.008Z,7.10
2018-12-02T03:48:46.289Z,7.00
2018-12-02T03:51:50.957Z,7.00
2018-12-02T03:54:55.044Z,7.00
2018-12-02T03:57:59.122Z,7.00
2018-12-02T04:01:03.443Z,7.10
2018-12-02T04:04:07.581Z,7.10
2018-12-02T04:07:11.717Z,7.10
2018-12-02T04:10:16.658Z,7.10
2018-12-02T04:13:20.703Z,7.10
2018-12-02T04:16:25.459Z,7.10
2018-12-02T04:19:29.512Z,7.10
2018-12-02T04:22:33.561Z,7.10
2018-12-02T04:25:37.599Z,7.00
2018-12-02T04:28:41.675Z,7.00
2018-12-02T04:31:45.814Z,7.00
2018-12-02T04:34:49.871Z,7.10
2018-12-02T04:37:53.955Z,7.10
2018-12-02T04:40:58.567Z,7.30
2018-12-02T04:44:02.679Z,7.30
2018-12-02T04:47:06.787Z,7.30
2018-12-02T04:50:13.275Z,7.30
2018-12-02T04:53:17.314Z,7.40
2018-12-02T04:56:21.978Z,7.40
2018-12-02T04:59:26.047Z,7.40
2018-12-02T05:02:30.203Z,7.40
2018-12-02T05:05:34.302Z,7.40
2018-12-02T05:08:38.344Z,7.40
2018-12-02T05:11:42.422Z,7.50
2018-12-02T05:14:46.511Z,7.50
2018-12-02T05:17:50.916Z,7.50
2018-12-02T05:20:55.767Z,7.50
2018-12-02T05:23:59.838Z,7.50
2018-12-02T05:27:03.909Z,7.50
2018-12-02T05:30:12.679Z,7.40
2018-12-02T05:33:17.002Z,7.40
2018-12-02T05:36:21.091Z,7.40
2018-12-02T05:39:25.173Z,7.40
2018-12-02T05:42:32.165Z,7.40
2018-12-02T05:45:36.277Z,7.40
2018-12-02T05:48:40.353Z,7.40
2018-12-02T05:51:44.401Z,7.40
2018-12-02T05:54:48.548Z,7.40
2018-12-02T05:57:53.085Z,7.40
2018-12-02T06:00:57.362Z,7.30
2018-12-02T06:04:01.503Z,7.30
2018-12-02T06:07:06.026Z,7.30
2018-12-02T06:10:14.168Z,7.30
2018-12-02T06:13:18.258Z,7.30
2018-12-02T06:16:22.324Z,7.30
2018-12-02T06:19:30.348Z,7.30
2018-12-02T06:22:34.409Z,7.30
2018-12-02T06:25:38.477Z,7.30
2018-12-02T06:28:42.540Z,7.30
2018-12-02T06:31:46.627Z,7.10
2018-12-02T06:34:50.815Z,7.10
2018-12-02T06:37:57.123Z,6.90
2018-12-02T06:41:01.819Z,6.80
2018-12-02T06:44:05.904Z,6.80
2018-12-02T06:47:11.119Z,6.80
2018-12-02T06:50:17.277Z,6.80
2018-12-02T06:53:21.897Z,6.70
2018-12-02T06:56:31.857Z,6.70
2018-12-02T06:59:47.435Z,6.70
2018-12-02T07:02:57.954Z,6.70
2018-12-02T07:06:02.125Z,6.60
2018-12-02T07:09:08.479Z,6.60
2018-12-02T07:12:12.643Z,6.60
2018-12-02T07:15:16.718Z,6.50
2018-12-02T07:18:24.872Z,6.50
2018-12-02T07:21:33.000Z,6.50
2018-12-02T07:24:42.212Z,6.60
2018-12-02T07:27:46.470Z,6.60
2018-12-02T07:30:50.530Z,6.50
2018-12-02T07:33:54.630Z,6.50
2018-12-02T07:37:00.580Z,6.40
2018-12-02T07:40:17.427Z,6.50
2018-12-02T07:43:21.554Z,6.60
2018-12-02T07:46:25.622Z,6.60
2018-12-02T07:49:30.186Z,6.60
2018-12-02T07:52:34.370Z,6.60
2018-12-02T07:55:38.469Z,6.60
2018-12-02T07:58:42.552Z,6.60
2018-12-02T08:01:46.593Z,6.60
2018-12-02T08:04:50.649Z,6.60
2018-12-02T08:07:55.471Z,6.60
2018-12-02T08:10:59.871Z,6.70
2018-12-02T08:14:03.975Z,6.60
2018-12-02T08:17:08.148Z,6.70
2018-12-02T08:20:13.414Z,6.70
2018-12-02T08:23:17.481Z,6.70
2018-12-02T08:26:21.630Z,6.60
2018-12-02T08:29:25.766Z,6.70
2018-12-02T08:32:30.514Z,6.70
2018-12-02T08:35:34.585Z,6.70
2018-12-02T08:38:38.730Z,6.80
2018-12-02T08:41:42.845Z,6.80
2018-12-02T08:44:46.931Z,6.80
2018-12-02T08:51:58.441Z,7.00
2018-12-02T08:55:02.527Z,7.00
2018-12-02T08:58:06.612Z,7.10
2018-12-02T09:01:10.739Z,7.20
2018-12-02T09:04:14.875Z,7.30
2018-12-02T09:07:19.151Z,7.40
2018-12-02T09:10:26.138Z,7.30
2018-12-02T09:13:30.188Z,7.30
2018-12-02T09:16:34.401Z,7.30
2018-12-02T09:19:38.453Z,7.30
2018-12-02T09:22:42.565Z,7.40
2018-12-02T09:25:46.669Z,7.50
2018-12-02T09:28:50.810Z,7.50
2018-12-02T09:31:54.949Z,7.70
2018-12-02T09:34:59.663Z,7.80
2018-12-02T09:38:03.796Z,7.90
2018-12-02T09:41:08.243Z,8.10
2018-12-02T09:44:12.655Z,8.20
2018-12-02T09:47:16.817Z,8.40
2018-12-02T09:50:20.953Z,8.50
2018-12-02T09:53:25.113Z,8.70
2018-12-02T09:56:30.372Z,8.80
2018-12-02T09:59:34.606Z,8.90
2018-12-02T10:02:38.947Z,8.80
2018-12-02T10:05:43.153Z,8.70
2018-12-02T10:08:47.626Z,8.40
2018-12-02T10:11:51.845Z,8.30
2018-12-02T10:14:56.086Z,8.40
2018-12-02T10:18:00.222Z,8.50
2018-12-02T10:21:05.492Z,8.50
2018-12-02T10:24:09.663Z,8.40
2018-12-02T10:27:13.869Z,8.50
2018-12-02T10:30:25.654Z,8.50
2018-12-02T10:33:30.022Z,8.60
2018-12-02T10:36:34.127Z,8.70
2018-12-02T10:39:38.993Z,8.70
2018-12-02T10:42:43.461Z,8.70
2018-12-02T10:45:47.584Z,8.80
2018-12-02T10:48:51.985Z,8.90
2018-12-02T10:51:56.121Z,9.00
2018-12-02T10:55:01.132Z,9.00
2018-12-02T10:58:06.887Z,8.90
2018-12-02T11:01:17.972Z,8.80
2018-12-02T11:04:22.064Z,8.90
2018-12-02T11:07:26.137Z,8.90
2018-12-02T11:10:30.456Z,8.80
2018-12-02T11:13:34.631Z,8.70
2018-12-02T11:16:38.702Z,8.80
2018-12-02T11:19:42.883Z,8.70
2018-12-02T11:22:46.981Z,8.80
2018-12-02T11:25:51.057Z,8.80
2018-12-02T11:28:55.142Z,8.80
2018-12-02T11:31:59.352Z,8.70
2018-12-02T11:35:03.492Z,8.70
2018-12-02T11:38:08.499Z,8.70
2018-12-02T11:41:13.150Z,8.50
2018-12-02T11:44:17.272Z,8.50
2018-12-02T11:47:21.471Z,8.50
2018-12-02T11:50:26.572Z,8.50
2018-12-02T11:53:31.431Z,8.60
2018-12-02T11:56:35.488Z,8.60
2018-12-02T11:59:39.551Z,8.60
2018-12-02T12:02:43.645Z,8.50
2018-12-02T12:05:47.700Z,8.50
2018-12-02T12:08:51.807Z,8.70
2018-12-02T12:11:55.880Z,8.60
2018-12-02T12:14:59.972Z,8.60
2018-12-02T12:18:04.381Z,8.60
2018-12-02T12:21:08.467Z,8.60
2018-12-02T12:24:12.543Z,8.60
2018-12-02T12:27:16.709Z,8.60
2018-12-02T12:30:25.081Z,8.50
2018-12-02T12:33:29.162Z,8.50
2018-12-02T12:36:33.331Z,8.60
2018-12-02T12:39:37.975Z,8.50
2018-12-02T12:42:43.360Z,8.60
2018-12-02T12:45:47.581Z,8.60
2018-12-02T12:48:52.951Z,8.70
2018-12-02T12:51:57.556Z,8.70
2018-12-02T12:55:01.631Z,8.70
2018-12-02T12:58:06.233Z,8.80
2018-12-02T13:01:10.346Z,8.80
2018-12-02T13:04:15.238Z,8.80
2018-12-02T13:07:19.522Z,8.80
2018-12-02T13:10:23.761Z,8.80
2018-12-02T13:13:27.944Z,8.80
2018-12-02T13:16:32.485Z,8.70
2018-12-02T13:19:36.537Z,8.80
2018-12-02T13:22:40.822Z,8.80
2018-12-02T13:25:44.972Z,8.80
2018-12-02T13:28:49.120Z,8.80
2018-12-02T13:31:53.609Z,8.70
2018-12-02T13:34:57.733Z,8.80
2018-12-02T13:38:01.781Z,8.90
2018-12-02T13:41:07.285Z,8.90
2018-12-02T13:44:11.747Z,8.90
2018-12-02T13:47:15.944Z,8.90
2018-12-02T13:50:20.813Z,8.90
2018-12-02T13:53:25.017Z,8.90
2018-12-02T13:56:29.125Z,9.00
2018-12-02T13:59:33.294Z,9.00
2018-12-02T14:02:37.399Z,9.00
2018-12-02T14:05:44.287Z,9.00
2018-12-02T14:08:48.505Z,9.00
2018-12-02T14:11:52.726Z,9.00
2018-12-02T14:14:58.145Z,9.00
2018-12-02T14:18:14.453Z,9.10
2018-12-02T14:21:19.481Z,9.10
2018-12-02T14:24:23.530Z,9.10
2018-12-02T14:27:27.658Z,9.10
2018-12-02T14:30:31.757Z,9.10
2018-12-02T14:33:36.046Z,9.10
2018-12-02T14:36:40.096Z,9.20
2018-12-02T14:39:44.300Z,9.30
2018-12-02T14:42:48.524Z,9.30
2018-12-02T14:45:53.257Z,9.40
2018-12-02T14:48:56.900Z,9.40
2018-12-02T14:52:02.175Z,9.50
2018-12-02T14:55:08.242Z,9.50
2018-12-02T14:58:12.381Z,9.50
2018-12-02T15:01:16.619Z,9.60
2018-12-02T15:04:20.916Z,9.60
2018-12-02T15:07:25.039Z,9.60
2018-12-02T15:10:29.141Z,9.70
2018-12-02T15:13:33.849Z,9.70
2018-12-02T15:16:38.415Z,9.90
2018-12-02T15:19:42.612Z,9.80
2018-12-02T15:22:46.709Z,9.90
2018-12-02T15:25:51.278Z,9.80
2018-12-02T15:28:55.478Z,9.90
2018-12-02T15:31:59.996Z,9.90
2018-12-02T15:35:04.410Z,9.90
2018-12-02T15:38:09.164Z,9.90
2018-12-02T15:41:13.337Z,10.00
2018-12-02T15:44:17.592Z,10.10
2018-12-02T15:47:21.776Z,10.10
2018-12-02T15:50:26.104Z,10.10
2018-12-02T15:53:31.115Z,10.10
2018-12-02T15:56:35.924Z,10.10
2018-12-02T15:59:40.102Z,10.10
2018-12-02T16:02:44.342Z,10.20
2018-12-02T16:05:48.470Z,10.20
2018-12-02T16:08:52.642Z,10.20
2018-12-02T16:11:56.801Z,10.20
2018-12-02T16:15:01.042Z,10.30
2018-12-02T16:18:07.882Z,10.30
2018-12-02T16:21:11.957Z,10.30
2018-12-02T16:24:16.030Z,10.40
2018-12-02T16:27:20.141Z,10.40
2018-12-02T16:30:24.383Z,10.50
2018-12-02T16:33:28.521Z,10.30
2018-12-02T16:36:32.838Z,10.30
2018-12-02T16:39:38.177Z,10.30
2018-12-02T16:42:42.254Z,10.40
2018-12-02T16:45:46.394Z,10.40
2018-12-02T16:48:50.529Z,10.50
2018-12-02T16:51:54.591Z,10.50
2018-12-02T16:54:58.727Z,10.40
2018-12-02T16:58:14.162Z,10.40
2018-12-02T17:01:19.920Z,10.40
2018-12-02T17:04:24.387Z,10.40
2018-12-02T17:07:28.664Z,10.40
2018-12-02T17:10:33.422Z,10.40
2018-12-02T17:13:37.593Z,10.30
2018-12-02T17:16:41.742Z,10.40
2018-12-02T17:19:45.826Z,10.40
2018-12-02T17:22:56.549Z,10.50
2018-12-02T17:26:00.656Z,10.50
2018-12-02T17:29:06.174Z,10.50
2018-12-02T17:32:11.964Z,10.60
2018-12-02T17:35:16.158Z,10.60
2018-12-02T17:38:21.933Z,10.70
2018-12-02T17:41:32.766Z,10.70
2018-12-02T17:44:37.290Z,10.70
2018-12-02T17:47:42.131Z,10.60
2018-12-02T17:50:46.200Z,10.70
2018-12-02T17:53:50.311Z,10.70
2018-12-02T17:56:54.491Z,10.70
2018-12-02T17:59:58.569Z,10.60
2018-12-02T18:03:03.544Z,10.60
2018-12-02T18:06:09.268Z,10.70
2018-12-02T18:09:14.739Z,10.70
2018-12-02T18:12:18.814Z,10.70
2018-12-02T18:15:23.015Z,10.70
2018-12-02T18:18:27.138Z,10.70
2018-12-02T18:21:31.247Z,10.80
2018-12-02T18:24:35.877Z,10.80
2018-12-02T18:27:40.054Z,10.80
2018-12-02T18:30:45.313Z,10.80
2018-12-02T18:33:49.453Z,10.90
2018-12-02T18:36:54.675Z,11.00
2018-12-02T18:39:58.859Z,11.00
2018-12-02T18:43:03.342Z,11.00
2018-12-02T18:46:08.120Z,11.10
2018-12-02T18:49:12.221Z,11.10
2018-12-02T18:52:16.282Z,11.10
2018-12-02T18:55:20.299Z,11.10
2018-12-02T18:58:24.419Z,11.10
2018-12-02T19:01:28.488Z,11.00
2018-12-02T19:04:32.577Z,11.00
2018-12-02T19:07:36.844Z,11.10
2018-12-02T19:10:41.289Z,11.10
2018-12-02T19:13:45.938Z,11.20
2018-12-02T19:16:50.083Z,11.20
2018-12-02T19:19:54.191Z,11.10
2018-12-02T19:23:00.214Z,11.20
2018-12-02T19:26:04.350Z,11.20
2018-12-02T19:29:08.610Z,11.30
2018-12-02T19:32:12.806Z,11.30
2018-12-02T19:35:27.244Z,11.40
2018-12-02T19:38:31.340Z,11.40
2018-12-02T19:41:35.514Z,11.50
2018-12-02T19:44:39.961Z,11.50
2018-12-02T19:47:44.095Z,11.50
2018-12-02T19:50:48.866Z,11.60
2018-12-02T19:53:52.952Z,11.60
2018-12-02T19:56:57.089Z,11.60
2018-12-02T20:00:01.357Z,11.50
2018-12-02T20:03:05.498Z,11.50
2018-12-02T20:06:09.666Z,11.50
2018-12-02T20:09:14.608Z,11.60
2018-12-02T20:12:19.349Z,11.60
2018-12-02T20:15:23.471Z,11.50
2018-12-02T20:18:28.323Z,11.40
2018-12-02T20:21:32.556Z,11.50
2018-12-02T20:24:40.699Z,11.50
2018-12-02T20:27:44.838Z,11.40
2018-12-02T20:30:48.958Z,11.40
2018-12-02T20:33:53.402Z,11.40
2018-12-02T20:36:57.600Z,11.40
2018-12-02T20:40:02.046Z,11.40
2018-12-02T20:43:06.310Z,11.40
2018-12-02T20:46:11.298Z,11.50
2018-12-02T20:49:15.643Z,11.60
2018-12-02T20:52:19.739Z,11.70
2018-12-02T20:55:26.078Z,11.60
2018-12-02T20:58:36.604Z,11.60
2018-12-02T21:01:47.495Z,11.60
2018-12-02T21:04:51.587Z,11.50
2018-12-02T21:07:56.102Z,11.40
2018-12-02T21:11:00.251Z,11.40
2018-12-02T21:14:04.442Z,11.50
2018-12-02T21:17:08.519Z,11.60
2018-12-02T21:20:13.617Z,11.60
2018-12-02T21:23:18.463Z,11.50
2018-12-02T21:26:22.625Z,11.60
2018-12-02T21:29:26.762Z,11.60
2018-12-02T21:32:30.889Z,11.60
2018-12-02T21:35:35.198Z,11.60
2018-12-02T21:38:40.219Z,11.70
2018-12-02T21:41:44.372Z,11.70
2018-12-02T21:44:49.083Z,11.60
2018-12-02T21:47:54.694Z,11.70
2018-12-02T21:50:59.115Z,11.70
2018-12-02T21:54:03.222Z,11.70
2018-12-02T21:57:07.444Z,11.70
2018-12-02T22:00:20.022Z,11.60
2018-12-02T22:03:24.368Z,11.80
2018-12-02T22:06:28.452Z,11.80
2018-12-02T22:09:32.690Z,11.80
2018-12-02T22:12:36.852Z,11.70
2018-12-02T22:15:41.196Z,11.60
2018-12-02T22:18:46.122Z,11.60
2018-12-02T22:21:50.178Z,11.60
2018-12-02T22:24:54.474Z,11.60
2018-12-02T22:27:58.568Z,11.70
2018-12-02T22:31:02.709Z,11.50
2018-12-02T22:34:07.290Z,11.60
2018-12-02T22:37:11.768Z,11.60
2018-12-02T22:40:19.086Z,11.60
2018-12-02T22:43:23.236Z,11.60
2018-12-02T22:46:27.353Z,11.60
2018-12-02T22:49:31.518Z,11.60
2018-12-02T22:52:36.227Z,11.60
2018-12-02T22:55:40.276Z,11.60
2018-12-02T22:58:45.079Z,11.50
2018-12-02T23:01:54.438Z,11.50
2018-12-02T23:04:58.680Z,11.40
2018-12-02T23:08:03.100Z,11.30
2018-12-02T23:11:07.818Z,11.40
2018-12-02T23:14:12.343Z,11.30
2018-12-02T23:17:19.272Z,11.30
2018-12-02T23:20:23.890Z,11.30
2018-12-02T23:23:27.949Z,11.30
2018-12-02T23:26:32.029Z,11.30
2018-12-02T23:29:36.205Z,11.20
2018-12-02T23:32:40.889Z,11.20
2018-12-02T23:35:45.322Z,11.10
2018-12-02T23:38:49.426Z,11.20
2018-12-02T23:41:53.646Z,11.20
2018-12-02T23:44:57.767Z,11.20
2018-12-02T23:48:01.965Z,11.20
2018-12-02T23:51:06.051Z,11.30
2018-12-02T23:54:10.903Z,11.30
2018-12-02T23:57:15.978Z,11.30
